Time;durP1;ratioP1;P1;durP2;ratioP2;P2;SDS_P1;SDS_P2;PMS_P1;PMS_P2;Temp;Humidity;BMP_temperature;BMP_pressure;BME280_temperature;BME280_humidity;BME280_pressure;Samples;Min_cycle;Max_cycle;Signal;HPM_P1;HPM_P2
2021/05/26 00:00:00;;;;;;;10.30;8.02;;;21.70;90.10;;;;;;5072746;28;20024;-81
2021/05/26 00:02:25;;;;;;;10.80;8.52;;;21.80;90.10;;;;;;5054790;28;20047;-81
2021/05/26 00:04:52;;;;;;;10.23;8.32;;;21.70;90.10;;;;;;5038117;28;20037;-81
2021/05/26 00:07:17;;;;;;;13.20;8.90;;;21.70;90.10;;;;;;5038328;28;20036;-81
2021/05/26 00:09:43;;;;;;;11.95;9.10;;;21.70;90.10;;;;;;5037958;28;20467;-82
2021/05/26 00:12:09;;;;;;;13.65;9.93;;;21.70;90.00;;;;;;5054951;28;20466;-81
2021/05/26 00:14:35;;;;;;;12.05;9.35;;;21.70;90.10;;;;;;5054500;28;20470;-82
2021/05/26 00:17:00;;;;;;;13.02;10.10;;;21.70;90.00;;;;;;5021930;28;20048;-82
2021/05/26 00:19:26;;;;;;;13.27;10.30;;;21.70;90.00;;;;;;5054864;28;20054;-82
2021/05/26 00:21:51;;;;;;;14.07;10.80;;;21.70;90.00;;;;;;5072472;28;20036;-82
2021/05/26 00:24:17;;;;;;;15.40;10.82;;;21.70;90.00;;;;;;5072702;28;20173;-81
2021/05/26 00:26:46;;;;;;;13.98;10.68;;;21.70;90.00;;;;;;5072345;28;20031;-82
2021/05/26 00:29:12;;;;;;;14.10;10.68;;;21.70;90.10;;;;;;5072557;28;20037;-82
2021/05/26 00:31:38;;;;;;;16.27;12.05;;;21.70;90.10;;;;;;5072362;28;20025;-81
2021/05/26 00:34:03;;;;;;;15.23;11.88;;;21.70;90.10;;;;;;5072233;28;20520;-81
2021/05/26 00:36:30;;;;;;;14.93;12.00;;;21.70;90.10;;;;;;5054682;28;20040;-82
2021/05/26 00:38:56;;;;;;;14.52;11.75;;;21.70;90.10;;;;;;5037929;28;20082;-82
2021/05/26 00:41:30;;;;;;;15.20;11.95;;;21.70;90.10;;;;;;5054454;28;20037;-81
2021/05/26 00:43:56;;;;;;;15.70;12.07;;;21.70;90.10;;;;;;5072736;28;20024;-81
2021/05/26 00:46:21;;;;;;;15.10;12.07;;;21.70;90.10;;;;;;5054383;28;20479;-82
2021/05/26 00:48:47;;;;;;;15.13;12.35;;;21.70;90.10;;;;;;5050692;28;20110;-82
2021/05/26 00:51:13;;;;;;;16.38;13.10;;;21.70;90.10;;;;;;5051388;28;20040;-82
2021/05/26 00:53:38;;;;;;;17.17;13.60;;;21.70;90.10;;;;;;5052445;28;20023;-82
2021/05/26 00:56:06;;;;;;;18.58;14.32;;;21.70;90.10;;;;;;5054669;28;20401;-82
2021/05/26 00:58:32;;;;;;;16.35;12.65;;;21.70;90.10;;;;;;5056098;28;20029;-81
2021/05/26 01:00:57;;;;;;;17.75;13.82;;;21.70;90.10;;;;;;5054580;28;20036;-82
2021/05/26 01:03:23;;;;;;;21.13;14.15;;;21.70;90.10;;;;;;5054803;28;20332;-81
2021/05/26 01:05:49;;;;;;;18.65;14.10;;;21.70;90.10;;;;;;5021423;28;20364;-82
2021/05/26 01:08:15;;;;;;;16.70;13.10;;;21.70;90.10;;;;;;5054583;28;20041;-82
2021/05/26 01:10:41;;;;;;;19.60;14.40;;;21.70;90.10;;;;;;5054296;28;20024;-82
2021/05/26 01:13:08;;;;;;;17.85;14.32;;;21.70;90.10;;;;;;5037878;28;20041;-82
2021/05/26 01:15:34;;;;;;;18.33;14.23;;;21.70;90.10;;;;;;5055302;28;20411;-81
2021/05/26 01:18:22;;;;;;;18.10;14.48;;;21.70;90.10;;;;;;5054115;28;20036;-82
2021/05/26 01:20:48;;;;;;;19.00;14.63;;;21.70;90.10;;;;;;5054001;28;20032;-82
2021/05/26 01:23:17;;;;;;;20.88;15.68;;;21.70;90.10;;;;;;5054054;28;20029;-82
2021/05/26 01:25:45;;;;;;;18.95;15.02;;;21.70;90.20;;;;;;5055311;28;20032;-82
2021/05/26 01:28:11;;;;;;;20.30;15.52;;;21.60;90.10;;;;;;5055407;28;20033;-81
2021/05/26 01:30:37;;;;;;;22.88;15.85;;;21.70;90.10;;;;;;5037153;28;20033;-81
2021/05/26 01:33:03;;;;;;;23.77;15.65;;;21.70;90.20;;;;;;5054816;28;20063;-81
2021/05/26 01:35:28;;;;;;;21.35;16.35;;;21.70;90.10;;;;;;5054292;28;20443;-81
2021/05/26 01:37:54;;;;;;;21.27;16.08;;;21.70;90.20;;;;;;5053844;28;20103;-82
2021/05/26 01:40:20;;;;;;;21.52;16.63;;;21.70;90.20;;;;;;5037403;28;20029;-81
2021/05/26 01:42:46;;;;;;;21.17;16.73;;;21.70;90.20;;;;;;5037218;28;20029;-82
2021/05/26 01:45:13;;;;;;;23.33;17.35;;;21.70;90.20;;;;;;5055122;28;20035;-81
2021/05/26 01:47:39;;;;;;;21.50;17.20;;;21.70;90.20;;;;;;5054058;28;20057;-81
2021/05/26 01:50:06;;;;;;;22.05;16.77;;;21.60;90.10;;;;;;5075078;28;20067;-81
2021/05/26 01:52:33;;;;;;;23.05;17.65;;;21.70;90.20;;;;;;5040403;28;20421;-81
2021/05/26 01:54:58;;;;;;;23.25;18.17;;;21.60;90.10;;;;;;5075099;28;20024;-81
2021/05/26 01:57:24;;;;;;;22.77;17.33;;;21.60;90.20;;;;;;5057297;28;20032;-81
2021/05/26 01:59:50;;;;;;;26.23;18.52;;;21.60;90.20;;;;;;5056652;28;20036;-82
2021/05/26 02:02:15;;;;;;;22.85;18.38;;;21.60;90.10;;;;;;5057103;28;20119;-81
2021/05/26 02:04:41;;;;;;;24.70;19.05;;;21.60;90.20;;;;;;5040219;28;20028;-81
2021/05/26 02:07:11;;;;;;;23.52;17.95;;;21.60;90.20;;;;;;5056862;28;20059;-81
2021/05/26 02:09:37;;;;;;;22.20;17.88;;;21.60;90.20;;;;;;5074580;28;20024;-80
2021/05/26 02:12:23;;;;;;;21.63;17.50;;;21.60;90.20;;;;;;5074325;28;20047;-81
2021/05/26 02:14:53;;;;;;;23.33;18.58;;;21.60;90.20;;;;;;5059208;28;20040;-81
2021/05/26 02:17:20;;;;;;;25.60;18.20;;;21.60;90.20;;;;;;5040380;28;20476;-80
2021/05/26 02:19:46;;;;;;;24.80;18.77;;;21.60;90.20;;;;;;5056431;28;20025;-82
2021/05/26 02:22:11;;;;;;;23.13;18.75;;;21.60;90.20;;;;;;5074361;28;20032;-81
2021/05/26 02:24:38;;;;;;;25.10;18.85;;;21.60;90.20;;;;;;5074288;28;20094;-80
2021/05/26 02:27:04;;;;;;;23.13;18.27;;;21.60;90.20;;;;;;5039629;28;20047;-81
2021/05/26 02:29:29;;;;;;;23.98;18.98;;;21.60;90.20;;;;;;5074293;28;20028;-81
2021/05/26 02:31:55;;;;;;;25.73;20.25;;;21.60;90.20;;;;;;5039698;28;20032;-81
2021/05/26 02:34:20;;;;;;;24.33;18.08;;;21.60;90.20;;;;;;5056394;28;20028;-82
2021/05/26 02:36:46;;;;;;;24.17;19.27;;;21.60;90.20;;;;;;5055878;28;20036;-81
2021/05/26 02:39:12;;;;;;;23.98;18.60;;;21.60;90.20;;;;;;5056195;28;20456;-81
2021/05/26 02:41:38;;;;;;;24.17;18.65;;;21.60;90.20;;;;;;5056021;28;20024;-81
2021/05/26 02:44:04;;;;;;;23.70;19.92;;;21.60;90.20;;;;;;5055905;28;20032;-81
2021/05/26 02:46:30;;;;;;;26.45;20.95;;;21.60;90.20;;;;;;5074232;28;20086;-81
2021/05/26 02:48:55;;;;;;;26.08;19.23;;;21.60;90.20;;;;;;5055297;28;20082;-81
2021/05/26 02:51:22;;;;;;;24.90;19.40;;;21.60;90.20;;;;;;5074146;28;20481;-81
2021/05/26 02:53:47;;;;;;;24.15;19.55;;;21.60;90.20;;;;;;5055704;28;20536;-83
2021/05/26 02:56:14;;;;;;;24.55;18.88;;;21.60;90.20;;;;;;5073583;28;20024;-82
2021/05/26 02:58:39;;;;;;;22.33;18.08;;;21.60;90.20;;;;;;5073704;28;20021;-82
2021/05/26 03:01:05;;;;;;;22.58;18.15;;;21.60;90.20;;;;;;5039031;28;20089;-82
2021/05/26 03:03:31;;;;;;;24.45;18.90;;;21.60;90.20;;;;;;5039154;28;20036;-82
2021/05/26 03:05:57;;;;;;;24.17;19.63;;;21.60;90.20;;;;;;5055543;28;20051;-82
2021/05/26 03:08:22;;;;;;;23.20;18.65;;;21.60;90.20;;;;;;5073131;28;20036;-82
2021/05/26 03:10:48;;;;;;;27.00;20.17;;;21.60;90.20;;;;;;5073181;28;20486;-85
2021/05/26 03:13:14;;;;;;;25.35;19.10;;;21.60;90.20;;;;;;5073588;28;20021;-82
2021/05/26 03:15:40;;;;;;;23.88;19.05;;;21.60;90.20;;;;;;5055560;28;20024;-82
2021/05/26 03:18:06;;;;;;;24.13;18.75;;;21.60;90.20;;;;;;5055037;28;20029;-82
2021/05/26 03:20:32;;;;;;;23.52;18.63;;;21.60;90.20;;;;;;5055649;28;20021;-82
2021/05/26 03:22:58;;;;;;;21.75;18.55;;;21.60;90.20;;;;;;5072711;28;20036;-82
2021/05/26 03:25:25;;;;;;;24.45;19.10;;;21.60;90.20;;;;;;5073547;28;20029;-82
2021/05/26 03:27:51;;;;;;;21.83;17.27;;;21.60;90.20;;;;;;5054968;28;20040;-83
2021/05/26 03:30:19;;;;;;;22.27;18.25;;;21.60;90.20;;;;;;5055262;28;20036;-81
2021/05/26 03:32:45;;;;;;;23.75;18.02;;;21.60;90.20;;;;;;5055230;28;20028;-81
2021/05/26 03:35:13;;;;;;;22.63;17.98;;;21.60;90.20;;;;;;5055206;28;20052;-82
2021/05/26 03:37:39;;;;;;;23.40;18.77;;;21.50;90.20;;;;;;5055300;28;20056;-81
2021/05/26 03:40:08;;;;;;;22.92;17.85;;;21.50;90.20;;;;;;5054942;28;20119;-81
2021/05/26 03:42:33;;;;;;;21.55;17.70;;;21.60;90.20;;;;;;5055417;28;20039;-81
2021/05/26 03:44:59;;;;;;;22.52;17.25;;;21.60;90.20;;;;;;5054910;28;20029;-82
2021/05/26 03:47:25;;;;;;;23.58;17.80;;;21.50;90.20;;;;;;5055126;28;20059;-81
2021/05/26 03:49:50;;;;;;;23.27;17.88;;;21.60;90.20;;;;;;5072586;28;20135;-81
2021/05/26 03:52:16;;;;;;;21.25;17.73;;;21.50;90.20;;;;;;5055031;28;20029;-81
2021/05/26 03:54:42;;;;;;;21.77;16.80;;;21.50;90.20;;;;;;5055063;28;20032;-81
2021/05/26 03:57:09;;;;;;;22.55;18.38;;;21.50;90.20;;;;;;5038251;28;20037;-81
2021/05/26 03:59:35;;;;;;;21.25;17.25;;;21.50;90.20;;;;;;5055147;28;20377;-82
2021/05/26 04:02:00;;;;;;;23.15;18.05;;;21.50;90.20;;;;;;5054833;28;20100;-82
2021/05/26 04:04:26;;;;;;;22.00;17.73;;;21.50;90.20;;;;;;5021777;28;20082;-82
2021/05/26 04:06:52;;;;;;;20.75;17.52;;;21.50;90.20;;;;;;5054943;28;20493;-81
2021/05/26 04:09:20;;;;;;;20.80;16.45;;;21.50;90.20;;;;;;5072820;28;20063;-82
2021/05/26 04:11:46;;;;;;;21.50;17.30;;;21.50;90.20;;;;;;5038556;28;20383;-82
2021/05/26 04:14:12;;;;;;;22.55;17.50;;;21.50;90.20;;;;;;5054783;28;20020;-82
2021/05/26 04:16:37;;;;;;;19.15;16.30;;;21.50;90.20;;;;;;5038202;28;20031;-82
2021/05/26 04:19:03;;;;;;;21.05;16.95;;;21.50;90.20;;;;;;5072399;28;20507;-82
2021/05/26 04:21:30;;;;;;;19.92;15.15;;;21.60;90.20;;;;;;5054657;28;20032;-82
2021/05/26 04:23:56;;;;;;;22.52;16.92;;;21.50;90.20;;;;;;5072365;28;20110;-82
2021/05/26 04:26:22;;;;;;;20.85;16.83;;;21.60;90.20;;;;;;5072494;28;20051;-82
2021/05/26 04:28:48;;;;;;;20.08;16.08;;;21.60;90.30;;;;;;5055204;28;20462;-82
2021/05/26 04:31:14;;;;;;;18.48;15.00;;;21.60;90.20;;;;;;5058253;28;20051;-82
2021/05/26 04:33:40;;;;;;;21.40;16.48;;;21.50;90.20;;;;;;5058449;28;20024;-82
2021/05/26 04:36:06;;;;;;;19.17;15.88;;;21.50;90.20;;;;;;5058201;28;20035;-82
2021/05/26 04:38:32;;;;;;;19.17;15.80;;;21.50;90.20;;;;;;5058507;28;20228;-82
2021/05/26 04:40:59;;;;;;;19.25;15.60;;;21.60;90.30;;;;;;5075944;28;20063;-82
2021/05/26 04:43:29;;;;;;;20.33;15.88;;;21.50;90.20;;;;;;5058251;28;20067;-82
2021/05/26 04:45:55;;;;;;;19.17;15.73;;;21.50;90.20;;;;;;5042150;28;20025;-81
2021/05/26 04:48:21;;;;;;;20.20;16.10;;;21.50;90.20;;;;;;5057614;28;20157;-82
2021/05/26 04:50:47;;;;;;;18.52;15.13;;;21.60;90.30;;;;;;5076016;28;20033;-82
2021/05/26 04:53:12;;;;;;;18.60;15.65;;;21.50;90.20;;;;;;5075416;28;20033;-81
2021/05/26 04:55:38;;;;;;;19.63;15.20;;;21.50;90.30;;;;;;5058213;28;20035;-81
2021/05/26 04:58:06;;;;;;;18.67;15.57;;;21.50;90.30;;;;;;5041249;28;20025;-82
2021/05/26 05:00:32;;;;;;;19.35;15.15;;;21.50;90.30;;;;;;5057801;28;20029;-82
2021/05/26 05:02:58;;;;;;;18.17;14.63;;;21.50;90.30;;;;;;5058086;28;20485;-82
2021/05/26 05:05:24;;;;;;;17.10;14.40;;;21.50;90.30;;;;;;5075442;28;20028;-82
2021/05/26 05:07:50;;;;;;;19.75;15.07;;;21.60;90.30;;;;;;5024786;28;20032;-82
2021/05/26 05:10:16;;;;;;;15.90;13.32;;;21.50;90.30;;;;;;5057536;28;20070;-82
2021/05/26 05:12:42;;;;;;;18.92;14.15;;;21.50;90.30;;;;;;5057857;28;20386;-82
2021/05/26 05:15:08;;;;;;;16.10;13.82;;;21.50;90.30;;;;;;5057427;28;20457;-83
2021/05/26 05:17:34;;;;;;;16.20;13.13;;;21.50;90.30;;;;;;5041183;28;20043;-82
2021/05/26 05:20:00;;;;;;;17.02;13.63;;;21.60;90.30;;;;;;5057652;28;20025;-82
2021/05/26 05:22:26;;;;;;;16.30;13.13;;;21.60;90.30;;;;;;5041221;28;20029;-82
2021/05/26 05:24:52;;;;;;;14.75;12.45;;;21.60;90.30;;;;;;5075484;28;20025;-82
2021/05/26 05:27:17;;;;;;;15.35;12.68;;;21.60;90.30;;;;;;5074863;28;20363;-82
2021/05/26 05:29:43;;;;;;;16.05;12.57;;;21.60;90.30;;;;;;5057646;28;20115;-82
2021/05/26 05:32:09;;;;;;;15.25;12.20;;;21.60;90.30;;;;;;5057175;28;20033;-83
2021/05/26 05:34:35;;;;;;;14.32;11.80;;;21.60;90.30;;;;;;5056474;28;20082;-82
2021/05/26 05:37:01;;;;;;;14.77;12.25;;;21.60;90.30;;;;;;5075381;28;20111;-82
2021/05/26 05:39:26;;;;;;;13.73;11.25;;;21.60;90.20;;;;;;5056798;28;20378;-82
2021/05/26 05:41:52;;;;;;;13.82;11.63;;;21.60;90.20;;;;;;5040563;28;20025;-82
2021/05/26 05:44:17;;;;;;;14.18;11.57;;;21.60;90.20;;;;;;5023867;28;20082;-82
2021/05/26 05:46:43;;;;;;;15.10;11.60;;;21.60;90.30;;;;;;5024027;28;20039;-82
2021/05/26 05:49:08;;;;;;;14.95;11.77;;;21.60;90.20;;;;;;5074712;28;20051;-82
2021/05/26 05:51:34;;;;;;;13.85;10.93;;;21.60;90.20;;;;;;5075003;28;20532;-82
2021/05/26 05:54:00;;;;;;;14.23;11.43;;;21.60;90.20;;;;;;5074879;28;20028;-83
2021/05/26 05:56:26;;;;;;;13.20;10.77;;;21.60;90.20;;;;;;5074603;28;20024;-82
2021/05/26 05:58:51;;;;;;;13.90;11.55;;;21.60;90.20;;;;;;5056903;28;20028;-82
2021/05/26 06:01:17;;;;;;;12.75;10.80;;;21.60;90.20;;;;;;5040124;28;20028;-82
2021/05/26 06:03:43;;;;;;;12.60;10.63;;;21.60;90.20;;;;;;5040305;28;20466;-82
2021/05/26 06:06:08;;;;;;;12.68;10.00;;;21.60;90.20;;;;;;5056454;28;20025;-82
2021/05/26 06:08:35;;;;;;;12.80;10.73;;;21.60;90.20;;;;;;5074487;28;20083;-82
2021/05/26 06:11:01;;;;;;;12.95;10.40;;;21.60;90.20;;;;;;5056680;28;20067;-83
2021/05/26 06:13:28;;;;;;;10.95;9.40;;;21.60;90.20;;;;;;5056237;28;20059;-82
2021/05/26 06:15:54;;;;;;;10.95;9.68;;;21.60;90.20;;;;;;5023323;28;20454;-83
2021/05/26 06:18:20;;;;;;;12.35;10.02;;;21.60;90.30;;;;;;5074094;28;20092;-82
2021/05/26 06:20:45;;;;;;;12.07;9.43;;;21.60;90.50;;;;;;5056569;28;20111;-82
2021/05/26 06:23:11;;;;;;;10.50;8.80;;;21.60;90.30;;;;;;5039487;28;20520;-83
2021/05/26 06:25:38;;;;;;;10.93;9.65;;;21.60;90.30;;;;;;5056246;28;20025;-82
2021/05/26 06:28:04;;;;;;;12.20;9.57;;;21.60;90.30;;;;;;5023276;28;20041;-82
2021/05/26 06:30:30;;;;;;;13.40;9.88;;;21.60;90.30;;;;;;5073908;28;20028;-82
2021/05/26 06:32:56;;;;;;;11.82;10.18;;;21.60;90.30;;;;;;5039181;28;20385;-82
2021/05/26 06:35:21;;;;;;;11.48;9.40;;;21.60;90.30;;;;;;5039234;28;20032;-82
2021/05/26 06:37:47;;;;;;;11.38;9.43;;;21.60;90.30;;;;;;5039443;28;20036;-83
2021/05/26 06:40:14;;;;;;;11.77;9.32;;;21.60;90.30;;;;;;5055809;28;20033;-83
2021/05/26 06:42:39;;;;;;;10.95;9.52;;;21.60;90.30;;;;;;5055951;28;20029;-82
2021/05/26 06:45:06;;;;;;;11.75;9.52;;;21.60;90.30;;;;;;5074160;28;20039;-82
2021/05/26 06:47:31;;;;;;;11.65;9.45;;;21.60;90.30;;;;;;5055783;28;20045;-83
2021/05/26 06:49:58;;;;;;;12.23;10.32;;;21.60;90.30;;;;;;5056026;28;20052;-82
2021/05/26 06:52:24;;;;;;;11.70;9.43;;;21.60;90.30;;;;;;5038295;28;20029;-82
2021/05/26 06:54:49;;;;;;;12.68;9.98;;;21.60;90.40;;;;;;5055940;28;20074;-82
2021/05/26 06:57:17;;;;;;;11.35;8.90;;;21.60;90.30;;;;;;5038963;28;20036;-82
2021/05/26 06:59:43;;;;;;;11.73;9.65;;;21.60;90.40;;;;;;5039781;28;20040;-82
2021/05/26 07:02:08;;;;;;;11.07;9.55;;;21.70;90.40;;;;;;5039447;28;20032;-82
2021/05/26 07:04:34;;;;;;;13.38;10.20;;;21.60;90.40;;;;;;5039024;28;20466;-82
2021/05/26 07:07:00;;;;;;;11.90;9.65;;;21.60;90.40;;;;;;5055976;28;20387;-82
2021/05/26 07:09:26;;;;;;;10.77;8.95;;;21.60;90.40;;;;;;5073385;28;20432;-82
2021/05/26 07:11:52;;;;;;;12.27;9.80;;;21.60;90.40;;;;;;5021974;28;20041;-83
2021/05/26 07:14:18;;;;;;;11.52;9.27;;;21.60;90.40;;;;;;5073081;28;20028;-82
2021/05/26 07:16:43;;;;;;;11.48;9.65;;;21.70;90.40;;;;;;5055435;28;20429;-83
2021/05/26 07:19:09;;;;;;;12.30;9.20;;;21.70;90.40;;;;;;5022159;28;20496;-82
2021/05/26 07:21:35;;;;;;;12.07;9.93;;;21.70;90.40;;;;;;5055247;28;20039;-83
2021/05/26 07:24:07;;;;;;;11.88;9.50;;;21.70;90.40;;;;;;5038807;28;20525;-82
2021/05/26 07:26:33;;;;;;;10.90;8.98;;;21.60;90.40;;;;;;5022877;28;20772;-83
2021/05/26 07:28:59;;;;;;;11.25;10.00;;;21.60;90.40;;;;;;5022288;28;20063;-82
2021/05/26 07:31:25;;;;;;;10.98;9.80;;;21.60;90.40;;;;;;5054848;28;20044;-82
2021/05/26 07:33:52;;;;;;;10.60;8.63;;;21.70;90.40;;;;;;5037466;28;20636;-83
2021/05/26 07:36:18;;;;;;;10.88;9.45;;;21.70;90.40;;;;;;5036709;28;20497;-83
2021/05/26 07:38:44;;;;;;;11.85;10.25;;;21.70;90.40;;;;;;5071492;28;20032;-83
2021/05/26 07:41:10;;;;;;;12.20;9.98;;;21.70;90.40;;;;;;5038169;28;20112;-82
2021/05/26 07:43:36;;;;;;;12.50;10.15;;;21.70;90.30;;;;;;5054815;28;20033;-82
2021/05/26 07:46:03;;;;;;;11.88;10.27;;;21.70;90.30;;;;;;5071042;28;20060;-82
2021/05/26 07:48:28;;;;;;;14.50;11.48;;;21.70;90.40;;;;;;5072431;28;20056;-83
2021/05/26 07:50:54;;;;;;;15.32;12.02;;;21.70;90.40;;;;;;5054916;28;20033;-82
2021/05/26 07:53:20;;;;;;;15.43;12.38;;;21.70;90.40;;;;;;5054938;28;20398;-82
2021/05/26 07:55:46;;;;;;;17.38;13.48;;;21.70;90.40;;;;;;5054807;28;20086;-82
2021/05/26 07:58:11;;;;;;;17.02;13.32;;;21.70;90.40;;;;;;5022151;28;20071;-82
2021/05/26 08:00:37;;;;;;;18.20;14.27;;;21.70;90.40;;;;;;5054595;28;20474;-82
2021/05/26 08:03:03;;;;;;;21.38;17.00;;;21.70;90.40;;;;;;5056094;28;20032;-82
2021/05/26 08:05:29;;;;;;;26.15;19.85;;;21.70;90.40;;;;;;5059582;28;20479;-83
2021/05/26 08:07:55;;;;;;;30.08;20.75;;;21.70;90.50;;;;;;5076485;28;20028;-80
2021/05/26 08:10:21;;;;;;;30.77;21.50;;;21.70;90.50;;;;;;5076301;28;20481;-80
2021/05/26 08:12:46;;;;;;;29.80;21.23;;;21.70;90.50;;;;;;5058529;28;20028;-81
2021/05/26 08:15:13;;;;;;;30.67;22.73;;;21.70;90.60;;;;;;5076784;28;20039;-81
2021/05/26 08:17:39;;;;;;;31.15;21.77;;;21.70;90.70;;;;;;5041922;28;20534;-81
2021/05/26 08:20:06;;;;;;;34.13;22.58;;;21.70;90.70;;;;;;5058916;28;20055;-81
2021/05/26 08:22:33;;;;;;;26.85;20.90;;;21.70;90.70;;;;;;5058506;28;20020;-82
2021/05/26 08:24:58;;;;;;;29.35;21.15;;;21.70;90.80;;;;;;5075142;28;20025;-82
2021/05/26 08:27:24;;;;;;;29.73;19.75;;;21.70;90.80;;;;;;5058272;28;20055;-82
2021/05/26 08:29:52;;;;;;;27.10;20.40;;;21.70;90.80;;;;;;5058461;28;20040;-82
2021/05/26 08:32:17;;;;;;;27.60;19.15;;;21.80;90.80;;;;;;5058481;28;20074;-81
2021/05/26 08:34:43;;;;;;;24.13;17.50;;;21.80;90.90;;;;;;5058081;28;20025;-81
2021/05/26 08:37:09;;;;;;;22.80;16.98;;;21.80;91.00;;;;;;5058540;28;20032;-81
2021/05/26 08:39:36;;;;;;;20.15;16.15;;;21.80;91.10;;;;;;5058140;28;20071;-82
2021/05/26 08:42:05;;;;;;;18.77;14.48;;;21.80;91.40;;;;;;5025575;28;20025;-81
2021/05/26 08:44:31;;;;;;;20.00;14.27;;;21.80;91.70;;;;;;5058674;28;20471;-81
2021/05/26 08:46:57;;;;;;;17.63;13.57;;;21.90;91.80;;;;;;5058143;28;20082;-81
2021/05/26 08:49:22;;;;;;;14.38;11.60;;;21.90;91.70;;;;;;5054110;28;20422;-85
2021/05/26 08:51:49;;;;;;;15.68;11.25;;;21.90;91.70;;;;;;5054857;28;20048;-82
2021/05/26 08:54:16;;;;;;;14.25;10.93;;;21.90;91.70;;;;;;5056038;28;20033;-82
2021/05/26 08:56:44;;;;;;;12.15;9.98;;;21.90;91.80;;;;;;5055716;28;20029;-82
2021/05/26 08:59:13;;;;;;;13.63;9.70;;;21.90;91.80;;;;;;5054794;28;20040;-82
2021/05/26 09:01:44;;;;;;;11.75;8.77;;;21.90;91.70;;;;;;5055478;28;20025;-81
2021/05/26 09:04:28;;;;;;;10.50;8.13;;;21.90;91.60;;;;;;5055870;28;20032;-83
2021/05/26 09:07:15;;;;;;;10.05;7.90;;;21.90;91.60;;;;;;5055864;28;20032;-82
2021/05/26 09:10:00;;;;;;;8.18;7.25;;;22.00;91.60;;;;;;5054370;28;20032;-83
2021/05/26 09:12:30;;;;;;;;;;;22.00;91.50;;;;;;5055944;28;20024;-83
2021/05/26 09:15:05;;;;;;;7.93;6.30;;;21.90;91.40;;;;;;5055200;28;19995;-83
2021/05/26 09:17:32;;;;;;;8.57;6.50;;;21.90;91.40;;;;;;5055448;28;20040;-83
2021/05/26 09:20:49;;;;;;;6.45;5.38;;;21.90;91.30;;;;;;5055558;28;20033;-82
2021/05/26 09:23:12;;;;;;;6.95;5.22;;;21.90;91.20;;;;;;5052463;28;20077;-83
2021/05/26 09:25:44;;;;;;;6.90;5.68;;;21.90;91.20;;;;;;5055290;28;20033;-83
2021/05/26 09:28:16;;;;;;;5.68;4.47;;;22.00;91.30;;;;;;5054207;28;20037;-83
2021/05/26 09:30:42;;;;;;;6.15;4.65;;;22.00;91.30;;;;;;5037657;28;20033;-83
2021/05/26 09:33:27;;;;;;;5.72;4.60;;;22.00;91.20;;;;;;5055021;28;20455;-82
2021/05/26 09:36:10;;;;;;;4.47;3.60;;;22.00;91.10;;;;;;5053976;28;20052;-83
2021/05/26 09:38:40;;;;;;;4.70;3.75;;;22.00;91.00;;;;;;5052968;28;20056;-83
2021/05/26 09:41:16;;;;;;;4.72;3.63;;;22.00;91.00;;;;;;5053983;28;20078;-83
2021/05/26 09:43:46;;;;;;;4.28;3.38;;;22.00;90.90;;;;;;5053566;28;20460;-83
2021/05/26 09:46:33;;;;;;;3.78;3.28;;;22.00;90.90;;;;;;5054965;28;20364;-83
2021/05/26 09:49:00;;;;;;;4.47;3.40;;;22.00;90.80;;;;;;5064404;28;20067;-83
2021/05/26 09:51:27;;;;;;;3.97;3.45;;;22.00;90.80;;;;;;5057310;28;20063;-82
2021/05/26 09:54:15;;;;;;;3.63;2.88;;;22.10;90.90;;;;;;5056681;28;20032;-83
2021/05/26 09:56:42;;;;;;;4.78;3.65;;;22.10;90.80;;;;;;5056767;28;20056;-83
2021/05/26 09:59:08;;;;;;;4.15;2.80;;;22.10;90.80;;;;;;5040512;28;20024;-83
2021/05/26 10:01:35;;;;;;;4.38;3.17;;;22.10;90.80;;;;;;5040151;28;20035;-84
2021/05/26 10:04:01;;;;;;;4.40;3.22;;;22.10;90.70;;;;;;5057089;28;20031;-82
2021/05/26 10:06:28;;;;;;;4.15;2.85;;;22.10;90.70;;;;;;5074661;28;20058;-83
2021/05/26 10:08:56;;;;;;;4.95;3.50;;;22.10;90.70;;;;;;5074462;28;20032;-83
2021/05/26 10:11:22;;;;;;;5.70;3.47;;;22.10;90.70;;;;;;5057010;28;20025;-83
2021/05/26 10:13:51;;;;;;;5.15;3.38;;;22.10;90.70;;;;;;5074512;28;20024;-83
2021/05/26 10:16:18;;;;;;;4.30;3.28;;;22.10;90.70;;;;;;5056680;28;20467;-83
2021/05/26 10:18:48;;;;;;;6.15;4.13;;;22.10;90.70;;;;;;5039505;28;20036;-82
2021/05/26 10:21:16;;;;;;;5.18;3.55;;;22.10;90.70;;;;;;5040378;28;20032;-83
2021/05/26 10:23:42;;;;;;;3.63;3.05;;;22.10;90.70;;;;;;5056144;28;20056;-83
2021/05/26 10:26:08;;;;;;;5.47;3.85;;;22.10;90.70;;;;;;5055891;28;20032;-82
2021/05/26 10:28:34;;;;;;;4.88;3.95;;;22.10;90.70;;;;;;5039028;28;20036;-83
2021/05/26 10:31:05;;;;;;;5.13;3.90;;;22.10;90.70;;;;;;5074365;28;20032;-83
2021/05/26 10:33:42;;;;;;;5.72;4.50;;;22.10;90.70;;;;;;5074083;28;20020;-83
2021/05/26 10:36:10;;;;;;;5.85;4.13;;;22.10;90.70;;;;;;5056318;28;20070;-83
2021/05/26 10:39:00;;;;;;;5.45;4.78;;;22.10;90.70;;;;;;5039388;28;20078;-84
2021/05/26 10:41:49;;;;;;;6.22;4.30;;;22.10;90.70;;;;;;5073580;28;20028;-83
2021/05/26 10:44:15;;;;;;;6.88;5.28;;;22.10;90.60;;;;;;5041035;28;20040;-82
2021/05/26 10:46:43;;;;;;;6.95;5.32;;;22.10;90.60;;;;;;5073643;28;20035;-83
2021/05/26 10:49:11;;;;;;;7.68;5.13;;;22.10;90.80;;;;;;5035983;28;20056;-83
2021/05/26 10:51:51;;;;;;;8.73;5.60;;;22.10;90.60;;;;;;5054032;28;20032;-83
2021/05/26 10:54:39;;;;;;;6.35;5.13;;;22.10;90.50;;;;;;5052448;28;20035;-83
2021/05/26 10:57:06;;;;;;;6.75;5.43;;;22.10;90.50;;;;;;5052632;28;20029;-83
2021/05/26 10:59:32;;;;;;;7.88;5.70;;;22.10;90.50;;;;;;5036247;28;20029;-83
2021/05/26 11:02:11;;;;;;;9.13;6.13;;;22.10;90.50;;;;;;5053559;28;20027;-83
2021/05/26 11:04:41;;;;;;;6.90;5.20;;;22.10;90.50;;;;;;5052289;28;20035;-81
2021/05/26 11:07:31;;;;;;;7.93;6.45;;;22.10;90.50;;;;;;5052398;28;20033;-81
2021/05/26 11:10:03;;;;;;;7.40;5.43;;;22.10;90.40;;;;;;5050196;28;20103;-81
2021/05/26 11:13:07;;;;;;;8.35;5.93;;;22.10;90.50;;;;;;5052477;28;20477;-82
2021/05/26 11:15:42;;;;;;;8.43;6.15;;;22.10;90.40;;;;;;5050919;28;20139;-82
2021/05/26 11:18:16;;;;;;;9.32;6.90;;;22.10;90.50;;;;;;5052247;28;20081;-81
2021/05/26 11:20:42;;;;;;;9.20;6.68;;;22.10;90.70;;;;;;5053175;28;20034;-81
2021/05/26 11:23:15;;;;;;;9.20;6.38;;;22.10;90.40;;;;;;5054239;28;20082;-82
2021/05/26 11:25:57;;;;;;;8.38;7.13;;;22.10;90.40;;;;;;5052120;28;20029;-82
2021/05/26 11:28:32;;;;;;;9.57;7.55;;;22.10;90.40;;;;;;5035484;28;20368;-81
2021/05/26 11:31:06;;;;;;;8.02;6.35;;;22.10;90.40;;;;;;5051867;28;20029;-81
2021/05/26 11:33:32;;;;;;;8.57;7.23;;;22.10;90.30;;;;;;5052112;28;20435;-83
2021/05/26 11:36:04;;;;;;;9.60;7.32;;;22.10;90.30;;;;;;5051930;28;20274;-83
2021/05/26 11:38:30;;;;;;;7.93;6.30;;;22.10;90.30;;;;;;5052009;28;20037;-83
2021/05/26 11:40:56;;;;;;;8.27;6.63;;;22.10;90.30;;;;;;5051553;28;20522;-83
2021/05/26 11:43:23;;;;;;;8.75;6.95;;;22.10;90.20;;;;;;5052018;28;20032;-83
2021/05/26 11:46:03;;;;;;;8.57;7.10;;;22.10;90.20;;;;;;5034784;28;20075;-82
2021/05/26 11:48:29;;;;;;;8.55;6.47;;;22.10;90.20;;;;;;5051466;28;20553;-86
2021/05/26 11:50:55;;;;;;;9.32;7.28;;;22.10;90.20;;;;;;5051110;28;20439;-81
2021/05/26 11:53:21;;;;;;;8.52;6.72;;;22.10;90.20;;;;;;5034705;28;20059;-82
2021/05/26 11:55:48;;;;;;;8.73;6.90;;;22.10;90.20;;;;;;5051030;28;20025;-82
2021/05/26 11:58:27;;;;;;;7.88;6.60;;;22.10;90.20;;;;;;5051817;28;20657;-82
2021/05/26 12:01:03;;;;;;;8.73;6.82;;;22.10;90.10;;;;;;5052619;28;20079;-82
2021/05/26 12:03:30;;;;;;;7.75;6.32;;;22.10;90.10;;;;;;5051275;28;20013;-82
2021/05/26 12:05:56;;;;;;;8.52;6.80;;;22.10;90.10;;;;;;5034900;28;20037;-83
2021/05/26 12:08:23;;;;;;;7.88;5.85;;;22.10;90.10;;;;;;5035007;28;20041;-83
2021/05/26 12:11:05;;;;;;;7.57;6.18;;;22.10;90.10;;;;;;5051323;28;20036;-83
2021/05/26 12:13:44;;;;;;;8.50;6.38;;;22.10;90.10;;;;;;5051117;28;20029;-83
2021/05/26 12:16:13;;;;;;;8.18;6.25;;;22.20;90.10;;;;;;5052983;28;20017;-83
2021/05/26 12:18:48;;;;;;;8.73;6.88;;;22.10;90.10;;;;;;5052658;28;20025;-83
2021/05/26 12:21:15;;;;;;;7.07;6.15;;;22.10;90.00;;;;;;5053033;28;20029;-83
2021/05/26 12:23:43;;;;;;;8.55;6.82;;;22.10;90.00;;;;;;5051471;28;20487;-82
2021/05/26 12:26:33;;;;;;;8.63;6.90;;;22.10;90.00;;;;;;5051226;28;20051;-83
2021/05/26 12:29:08;;;;;;;8.70;6.30;;;22.10;90.00;;;;;;5052439;28;20072;-83
2021/05/26 12:31:35;;;;;;;7.57;5.90;;;22.20;90.00;;;;;;5051112;28;20021;-82
2021/05/26 12:34:01;;;;;;;6.82;5.72;;;22.20;90.00;;;;;;5050903;28;20025;-82
2021/05/26 12:36:29;;;;;;;7.95;6.53;;;22.10;89.90;;;;;;5051198;28;20458;-82